createdAt,value
2016-11-25T12:22:16.085Z,64.34
2016-11-25T12:23:15.596Z,64.92
2016-11-25T12:24:15.284Z,65.59
2016-11-25T12:25:15.324Z,65.5
2016-11-25T12:26:15.384Z,65.11
2016-11-25T12:27:15.517Z,64.53
2016-11-25T12:28:16.006Z,64.43
2016-11-25T12:29:15.544Z,65.11
2016-11-25T12:30:15.566Z,65.88
2016-11-25T12:31:15.651Z,64.92
2016-11-25T12:32:15.926Z,64.34
2016-11-25T12:33:15.721Z,64.43
2016-11-25T12:34:15.787Z,63.59
2016-11-25T12:35:15.841Z,63.69
2016-11-25T12:36:16.424Z,64.17
2016-11-25T12:37:15.955Z,64.27
2016-11-25T12:38:16.191Z,64.17
2016-11-25T12:39:16.070Z,63.89
2016-11-25T12:40:16.093Z,64.27
2016-11-25T12:41:16.155Z,63.89
2016-11-25T12:42:16.711Z,63.79
2016-11-25T12:43:16.241Z,62.92
2016-11-25T12:44:16.328Z,63.69
2016-11-25T12:45:16.405Z,61.66
2016-11-25T12:46:16.462Z,62.24
2016-11-25T12:47:16.462Z,62.63
2016-11-25T12:48:16.518Z,62.92
2016-11-25T12:49:16.601Z,63.01
2016-11-25T12:50:16.653Z,62.43
2016-11-25T12:51:16.689Z,62.66
2016-11-25T12:52:16.731Z,62.27
2016-11-25T12:53:16.801Z,62.66
2016-11-25T12:54:16.852Z,61.88
2016-11-25T12:55:16.898Z,61.01
2016-11-25T12:56:16.964Z,61.01
2016-11-25T12:57:17.007Z,62.17
2016-11-25T12:58:17.085Z,61.79
2016-11-25T12:59:17.112Z,61.01
2016-11-25T13:00:17.157Z,60.55
2016-11-25T13:01:17.223Z,60.55
2016-11-25T13:02:17.271Z,60.72
2016-11-25T13:03:17.639Z,60.62
2016-11-25T13:04:17.360Z,60.52
2016-11-25T13:05:17.448Z,60.27
2016-11-25T13:06:17.484Z,60.75
2016-11-25T13:07:17.593Z,60.65
2016-11-25T13:08:17.693Z,60.36
2016-11-25T13:09:17.677Z,60.27
2016-11-25T13:10:17.698Z,59.49
2016-11-25T13:11:17.729Z,59.61
2016-11-25T13:12:17.813Z,59.91
2016-11-25T13:13:17.960Z,59.39
2016-11-25T13:14:17.942Z,59.33
2016-11-25T13:15:17.970Z,59.71
2016-11-25T13:16:18.031Z,59.52
2016-11-25T13:17:18.080Z,59.61
2016-11-25T13:18:18.125Z,60
2016-11-25T13:19:18.185Z,60.39
2016-11-25T13:20:18.275Z,61.85
2016-11-25T13:21:18.300Z,59.33
2016-11-25T13:22:18.361Z,59.13
2016-11-25T13:23:18.445Z,59.13
2016-11-25T13:24:18.494Z,58.65
2016-11-25T13:25:18.519Z,59.03
2016-11-25T13:26:18.585Z,58.74
2016-11-25T13:27:18.585Z,59.13
2016-11-25T13:28:18.654Z,60.1
2016-11-25T13:29:18.758Z,60.2
2016-11-25T13:30:18.789Z,58.55
2016-11-25T13:31:18.836Z,58.16
2016-11-25T13:32:18.877Z,57.68
2016-11-25T13:33:18.919Z,57.97
2016-11-25T13:34:18.964Z,58.84
2016-11-25T13:35:19.042Z,59.33
2016-11-25T13:36:19.093Z,58.29
2016-11-25T13:37:19.708Z,58.45
2016-11-25T13:38:19.214Z,57.7
2016-11-25T13:39:19.237Z,57.32
2016-11-25T13:40:19.297Z,58.19
2016-11-25T13:41:19.360Z,58.45
2016-11-25T13:42:19.432Z,58.84
2016-11-25T13:43:19.486Z,58.67
2016-11-25T13:44:19.642Z,58.77
2016-11-25T13:45:19.590Z,57.9
2016-11-25T13:46:19.631Z,57.9
2016-11-25T13:47:19.681Z,58.77
2016-11-25T13:48:19.727Z,59.36
2016-11-25T13:49:20.021Z,57.9
2016-11-25T13:50:19.842Z,58.58
2016-11-25T13:51:19.911Z,57.03
2016-11-25T13:52:19.963Z,56.57
2016-11-25T13:53:19.998Z,56.83
2016-11-25T13:54:20.040Z,56.18
2016-11-25T13:55:20.651Z,55.6
2016-11-25T13:56:20.166Z,55.69
2016-11-25T13:57:20.204Z,56.09
2016-11-25T13:58:20.288Z,56.67
2016-11-25T13:59:20.380Z,56.47
2016-11-25T14:00:20.368Z,57.44
2016-11-25T14:01:20.463Z,57.15
2016-11-25T14:02:20.491Z,58.03
2016-11-25T14:03:20.580Z,55.99
2016-11-25T14:04:20.595Z,56.57
2016-11-25T14:05:20.695Z,56.57
2016-11-25T14:06:20.708Z,57.15
2016-11-25T14:07:20.760Z,57.25
2016-11-25T14:08:20.811Z,57.44
2016-11-25T14:09:20.877Z,56.86
2016-11-25T14:10:20.930Z,57.15
2016-11-25T14:11:20.967Z,55.63
2016-11-25T14:12:21.004Z,56.11
2016-11-25T14:13:21.082Z,56.18
2016-11-25T14:14:21.663Z,56.01
2016-11-25T14:15:21.232Z,54.85
2016-11-25T14:16:21.277Z,55.04
2016-11-25T14:17:21.342Z,55.14
2016-11-25T14:18:21.363Z,55.63
2016-11-25T14:19:21.437Z,56.21
2016-11-25T14:20:21.570Z,55.63
2016-11-25T14:21:21.558Z,55.14
2016-11-25T14:22:21.582Z,54.85
2016-11-25T14:23:21.619Z,54.39
2016-11-25T14:24:22.244Z,54.75
2016-11-25T14:25:21.833Z,54.85
2016-11-25T14:26:21.810Z,55.63
2016-11-25T14:27:21.882Z,55.92
2016-11-25T14:28:21.931Z,54.46
2016-11-25T14:29:21.986Z,54.56
2016-11-25T14:30:22.218Z,54.2
2016-11-25T14:31:22.082Z,53.32
2016-11-25T14:32:22.120Z,53.97
2016-11-25T14:33:22.201Z,54.07
2016-11-25T14:34:22.212Z,53.2
2016-11-25T14:35:22.490Z,53.49
2016-11-25T14:36:22.340Z,53.49
2016-11-25T14:37:22.410Z,53.52
2016-11-25T14:38:23.193Z,53.61
2016-11-25T14:39:23.240Z,54
2016-11-25T14:40:22.571Z,53.32
2016-11-25T14:41:22.625Z,52.94
2016-11-25T14:42:22.672Z,53.13
2016-11-25T14:43:22.719Z,53.25
2016-11-25T14:44:22.774Z,52.96
2016-11-25T14:45:22.837Z,52.84
2016-11-25T14:46:22.948Z,54.1
2016-11-25T14:47:22.960Z,52.76
2016-11-25T14:48:23.068Z,53.22
2016-11-25T14:49:23.106Z,52.74
2016-11-25T14:50:23.103Z,53.03
2016-11-25T14:51:23.170Z,53.22
2016-11-25T14:52:23.717Z,52.84
2016-11-25T14:53:23.274Z,52.15
2016-11-25T14:54:23.348Z,52.06
2016-11-25T14:55:23.356Z,52.94
2016-11-25T14:56:23.483Z,52.84
2016-11-25T14:57:23.504Z,54
2016-11-25T14:58:23.616Z,52.25
2016-11-25T14:59:23.662Z,51.4
2016-11-25T15:00:23.669Z,51.6
2016-11-25T15:01:24.231Z,51.6
2016-11-25T15:02:23.753Z,50.34
2016-11-25T15:03:23.813Z,51.6
2016-11-25T15:04:23.937Z,51.7
2016-11-25T15:05:24.433Z,50.92
2016-11-25T15:06:24.092Z,53.06
2016-11-25T15:07:24.022Z,51.11
2016-11-25T15:08:24.149Z,49.85
2016-11-25T15:09:24.279Z,51.82
2016-11-25T15:10:24.171Z,48.51
2016-11-25T15:11:24.956Z,51.53
2016-11-25T15:12:24.289Z,52.21
2016-11-25T15:13:24.934Z,52.79
2016-11-25T15:14:24.978Z,52.31
2016-11-25T15:15:25.018Z,51.43
2016-11-25T15:16:24.526Z,50.65
2016-11-25T15:17:25.112Z,49.78
2016-11-25T15:18:24.637Z,49.97
2016-11-25T15:19:24.697Z,50.16
2016-11-25T15:20:25.248Z,50.07
2016-11-25T15:21:24.799Z,49.39
2016-11-25T15:22:25.434Z,48.51
2016-11-25T15:23:25.528Z,50.26
2016-11-25T15:24:24.971Z,51.33
2016-11-25T15:25:25.076Z,51.14
2016-11-25T15:26:25.603Z,50.26
2016-11-25T15:27:25.216Z,50.26
2016-11-25T15:28:25.173Z,50.16
2016-11-25T15:29:25.280Z,50.56
2016-11-25T15:30:25.304Z,49
2016-11-25T15:31:25.367Z,46.47
2016-11-25T15:32:25.943Z,46.96
2016-11-25T15:33:25.485Z,47.71
2016-11-25T15:34:25.522Z,48.3
2016-11-25T15:35:25.580Z,49.07
2016-11-25T15:36:25.650Z,49.27
2016-11-25T15:37:25.683Z,49.34
2016-11-25T15:38:26.272Z,49.05
2016-11-25T15:39:25.784Z,48.95
2016-11-25T15:40:25.867Z,49.05
2016-11-25T15:41:25.903Z,48.95
2016-11-25T15:42:26.158Z,49.32
2016-11-25T15:43:26.006Z,49.8
2016-11-25T15:44:26.055Z,48.73
2016-11-25T15:45:26.215Z,48.44
2016-11-25T15:47:41.794Z,48.35
2016-11-25T15:48:09.767Z,48.05
2016-11-25T15:48:37.645Z,48.37
2016-11-25T15:49:05.481Z,49.99
2016-11-25T15:49:33.315Z,50.6
2016-11-25T15:50:01.126Z,48.75
2016-11-25T15:50:29.076Z,48.27
2016-11-25T15:50:56.987Z,50.02
2016-11-25T15:51:24.751Z,49.66
2016-11-25T15:51:52.619Z,49.95
2016-11-25T15:52:20.536Z,48.68
2016-11-25T15:52:48.702Z,49.17
2016-11-25T15:53:16.472Z,48
2016-11-25T15:53:44.244Z,48.03
2016-11-25T15:54:12.075Z,48.61
2016-11-25T15:54:39.880Z,49
2016-11-25T15:55:07.691Z,49.29
2016-11-25T15:55:35.413Z,49
2016-11-25T15:56:03.354Z,48.51
2016-11-25T15:56:31.275Z,49.49
2016-11-25T15:56:59.139Z,48.22
2016-11-25T15:57:26.898Z,47.17
2016-11-25T15:57:54.783Z,46.69
2016-11-25T15:58:22.721Z,46.2
2016-11-25T15:58:50.583Z,46.4
2016-11-25T15:59:18.422Z,46.5
2016-11-25T15:59:46.268Z,46.11
2016-11-25T16:00:14.143Z,46.59
2016-11-25T16:00:42.219Z,46.59
2016-11-25T16:01:10.136Z,46.4
2016-11-25T16:01:38.187Z,46.98
2016-11-25T16:02:06.145Z,46.59
2016-11-25T16:02:33.970Z,46.11
2016-11-25T16:03:02.042Z,46.11
2016-11-25T16:03:30.295Z,45.72
2016-11-25T16:03:58.330Z,46.3
2016-11-25T16:04:26.306Z,46.88
2016-11-25T16:04:54.162Z,47
2016-11-25T16:05:22.072Z,46.81
2016-11-25T16:05:49.875Z,46.13
2016-11-25T16:06:17.805Z,47
2016-11-25T16:06:45.620Z,47.86
2016-11-25T16:07:13.417Z,47.59
2016-11-25T16:07:41.198Z,48.07
2016-11-25T16:08:09.206Z,48.27
2016-11-25T16:08:37.080Z,49.05
2016-11-25T16:09:05.033Z,49.24
2016-11-25T16:09:32.908Z,49.24
2016-11-25T16:10:00.915Z,49.63
2016-11-25T16:10:28.795Z,49.34
2016-11-25T16:10:56.615Z,49.05
2016-11-25T16:11:24.518Z,48.27
2016-11-25T16:11:52.366Z,48.34
2016-11-25T16:12:20.239Z,48.66
2016-11-25T16:12:48.258Z,48.36
2016-11-25T16:13:16.206Z,48.85
2016-11-25T16:13:44.155Z,48.46
2016-11-25T16:14:12.125Z,48.27
2016-11-25T16:14:40.387Z,48.56
2016-11-25T16:15:08.181Z,50.41
2016-11-25T16:15:35.949Z,50.31
2016-11-25T16:16:03.809Z,50.7
2016-11-25T16:16:31.577Z,51.58
2016-11-25T16:16:59.483Z,51.48
2016-11-25T16:17:27.318Z,50.41
2016-11-25T16:17:55.208Z,51.48
2016-11-25T16:18:23.080Z,50.8
2016-11-25T16:18:51.017Z,49.24
2016-11-25T16:19:18.990Z,50.41
2016-11-25T16:19:47.278Z,50.04
2016-11-25T16:20:15.190Z,49.44
2016-11-25T16:20:43.022Z,50.02
2016-11-25T16:21:10.972Z,50.02
2016-11-25T16:21:38.929Z,50.34
2016-11-25T16:22:06.737Z,50.43
2016-11-25T16:22:34.639Z,50.04
2016-11-25T16:23:02.690Z,50.34
2016-11-25T16:23:30.673Z,49.95
2016-11-25T16:23:58.600Z,50.34
2016-11-25T16:24:26.751Z,50.14
2016-11-25T16:24:54.670Z,49.17
2016-11-25T16:25:22.497Z,48.39
2016-11-25T16:25:50.313Z,49.56
2016-11-25T16:26:18.144Z,49.85
2016-11-25T16:26:45.951Z,50.73
2016-11-25T16:27:13.759Z,50.82
2016-11-25T16:27:42.100Z,51.61
2016-11-25T16:28:10.151Z,49.46
2016-11-25T16:28:37.971Z,50.14
2016-11-25T16:29:05.793Z,50.7
2016-11-25T16:29:33.678Z,51.39
2016-11-25T16:30:01.646Z,51.58
2016-11-25T16:30:29.513Z,51.29
2016-11-25T16:30:57.282Z,51.39
2016-11-25T16:31:25.090Z,50.7
2016-11-25T16:31:52.870Z,49.17
2016-11-25T16:32:20.753Z,50.31
2016-11-25T16:32:48.621Z,50.02
2016-11-25T16:33:16.560Z,47.3
2016-11-25T16:33:44.355Z,49.83
2016-11-25T16:34:12.217Z,50.9
2016-11-25T16:34:40.080Z,51.87
2016-11-25T16:35:07.904Z,50.41
2016-11-25T16:35:35.772Z,48.56
2016-11-25T16:36:03.695Z,50.02
2016-11-25T16:36:31.566Z,47.69
2016-11-25T16:36:59.439Z,49.15
2016-11-25T16:37:27.352Z,51.48
2016-11-25T16:37:55.427Z,52.16
2016-11-25T16:38:23.304Z,51.87
2016-11-25T16:38:51.330Z,51.48
2016-11-25T16:39:19.156Z,51.67
2016-11-25T16:39:46.976Z,51.19
2016-11-25T16:40:14.949Z,51.67
2016-11-25T16:40:42.841Z,52.26
2016-11-25T16:41:10.679Z,52.84
2016-11-25T16:41:38.675Z,52.94
2016-11-25T16:42:06.577Z,51.19
2016-11-25T16:42:34.367Z,50.31
2016-11-25T16:43:02.488Z,48.36
2016-11-25T16:43:30.334Z,50.6
2016-11-25T16:43:58.117Z,51.39
2016-11-25T16:44:26.109Z,49.24
2016-11-25T16:44:53.964Z,47.3
2016-11-25T16:45:21.741Z,48.17
2016-11-25T16:45:49.623Z,50.8
2016-11-25T16:46:17.478Z,50.41
2016-11-25T16:46:45.399Z,49.12
2016-11-25T16:47:13.165Z,49.73
2016-11-25T16:47:40.947Z,49.99
2016-11-25T16:48:09.093Z,50.31
2016-11-25T16:48:36.995Z,51.48
2016-11-25T16:49:04.788Z,51.36
2016-11-25T16:49:32.574Z,50.48
2016-11-25T16:50:01.358Z,51.87
2016-11-25T16:50:29.243Z,51.77
2016-11-25T16:50:57.147Z,52.45
2016-11-25T16:51:24.963Z,53.33
2016-11-25T16:51:52.812Z,52.16
2016-11-25T16:52:20.748Z,52.14
2016-11-25T16:52:48.699Z,53.14
2016-11-25T16:53:16.586Z,53.5
2016-11-25T16:53:44.386Z,53.81
2016-11-25T16:54:12.195Z,53.91
2016-11-25T16:54:40.235Z,54.3
2016-11-25T16:55:08.257Z,51.39
2016-11-25T16:55:36.105Z,54.01
2016-11-25T16:56:04.077Z,54.96
2016-11-25T16:56:31.987Z,54.57
2016-11-25T16:56:59.855Z,51.67
2016-11-25T16:57:27.796Z,53.81
2016-11-25T16:57:55.684Z,55.37
2016-11-25T16:58:23.665Z,54.89
2016-11-25T16:58:51.584Z,55.25
2016-11-25T16:59:19.540Z,54.99
2016-11-25T16:59:47.516Z,55.27
2016-11-25T17:00:15.519Z,54.69
2016-11-25T17:00:43.403Z,54.5
2016-11-25T17:01:11.328Z,55.18
2016-11-25T17:01:39.231Z,54.01
2016-11-25T17:02:07.138Z,55.27
2016-11-25T17:02:34.989Z,54.99
2016-11-25T17:03:02.882Z,55.18
2016-11-25T17:03:30.633Z,55.66
2016-11-25T17:03:58.542Z,55.47
2016-11-25T17:04:26.492Z,55.27
2016-11-25T17:04:54.269Z,55.66
2016-11-25T17:05:22.041Z,56.35
2016-11-25T17:05:49.861Z,55.96
2016-11-25T17:06:17.852Z,55.27
2016-11-25T17:06:45.754Z,54.99
2016-11-25T17:07:13.722Z,56.45
2016-11-25T17:07:41.509Z,56.84
2016-11-25T17:08:09.996Z,56.25
2016-11-25T17:08:37.852Z,55.05
2016-11-25T17:09:05.686Z,55.54
2016-11-25T17:09:33.544Z,53.4
2016-11-25T17:10:01.494Z,54.96
2016-11-25T17:10:29.408Z,54.28
2016-11-25T17:10:57.191Z,55.05
2016-11-25T17:11:24.979Z,57.2
2016-11-25T17:11:52.855Z,57.87
2016-11-25T17:12:20.731Z,59.33
2016-11-25T17:12:48.608Z,59.53
2016-11-25T17:13:16.625Z,59.14
2016-11-25T17:13:44.463Z,58.75
2016-11-25T17:14:12.494Z,59.23
2016-11-25T17:14:40.298Z,59.72
2016-11-25T17:15:08.166Z,59.53
2016-11-25T17:15:35.945Z,59.53
2016-11-25T17:16:03.771Z,59.99
2016-11-25T17:16:31.684Z,60.28
2016-11-25T17:16:59.639Z,60.28
2016-11-25T17:17:27.577Z,59.59
2016-11-25T17:17:55.534Z,58.33
2016-11-25T17:18:23.607Z,60.31
2016-11-25T17:18:51.425Z,58.75
2016-11-25T17:19:19.278Z,59.89
2016-11-25T17:19:47.317Z,61.15
2016-11-25T17:20:15.056Z,60.67
2016-11-25T17:20:42.926Z,61.25
2016-11-25T17:21:11.117Z,58.72
2016-11-25T17:21:38.878Z,58.62
2016-11-25T17:22:06.767Z,59.5
2016-11-25T17:22:34.596Z,60.47
2016-11-25T17:23:02.481Z,60.86
2016-11-25T17:23:30.591Z,61.35
2016-11-25T17:23:58.485Z,59.69
2016-11-25T17:24:26.444Z,62.48
2016-11-25T17:24:54.281Z,63.07
2016-11-25T17:25:22.075Z,62.87
2016-11-25T17:25:49.940Z,63.07
2016-11-25T17:26:17.847Z,63.17
2016-11-25T17:26:45.738Z,63.26
2016-11-25T17:27:13.675Z,62.48
2016-11-25T17:27:41.497Z,62.38
2016-11-25T17:28:09.462Z,62.19
2016-11-25T17:28:37.350Z,62.29
2016-11-25T17:29:05.344Z,60.83
2016-11-25T17:29:33.145Z,62.48
2016-11-25T17:30:00.957Z,62
2016-11-25T17:30:28.838Z,61.83
2016-11-25T17:30:56.778Z,62.41
2016-11-25T17:31:24.698Z,60.96
2016-11-25T17:31:52.500Z,61.74
2016-11-25T17:32:20.428Z,62.03
2016-11-25T17:32:48.381Z,62.38
2016-11-25T17:33:16.946Z,61.25
2016-11-25T17:33:44.889Z,60.67
2016-11-25T17:34:12.649Z,59.69
2016-11-25T17:34:40.597Z,59.01
2016-11-25T17:35:08.395Z,58.62
2016-11-25T17:35:36.551Z,60.38
2016-11-25T17:36:04.389Z,59.5
2016-11-25T17:36:32.260Z,60.96
2016-11-25T17:37:00.074Z,61.54
2016-11-25T17:37:27.853Z,61.64
2016-11-25T17:37:55.842Z,61.71
2016-11-25T17:38:23.785Z,57.53
2016-11-25T17:38:51.607Z,59.31
2016-11-25T17:39:20.046Z,60.86
2016-11-25T17:39:47.880Z,62.19
2016-11-25T17:40:15.756Z,62.61
2016-11-25T17:40:43.544Z,61.05
2016-11-25T17:41:11.467Z,61.61
2016-11-25T17:41:39.395Z,61.8
2016-11-25T17:42:07.168Z,62.29
2016-11-25T17:42:35.052Z,61.83
2016-11-25T17:43:02.858Z,61.74
2016-11-25T17:43:30.854Z,61.22
2016-11-25T17:43:58.671Z,61.32
2016-11-25T17:44:26.490Z,62.29
2016-11-25T17:44:54.317Z,61.12
2016-11-25T17:45:22.093Z,63.07
2016-11-25T17:45:49.961Z,63.55
2016-11-25T17:46:17.854Z,63.94
2016-11-25T17:46:45.654Z,63.36
2016-11-25T17:47:13.473Z,62.58
2016-11-25T17:47:41.455Z,61.41
2016-11-25T17:48:09.253Z,61.22
2016-11-25T17:48:37.344Z,63.17
2016-11-25T17:49:05.218Z,63.65
2016-11-25T17:49:33.158Z,62.87
2016-11-25T17:50:01.048Z,62.74
2016-11-25T17:50:28.913Z,62.84
2016-11-25T17:50:57.028Z,63.32
2016-11-25T17:51:24.935Z,60.31
2016-11-25T17:51:52.889Z,62.26
2016-11-25T17:52:20.737Z,63.91
2016-11-25T17:52:48.825Z,63.71
2016-11-25T17:53:16.808Z,63.13
2016-11-25T17:53:44.778Z,64.26
2016-11-25T17:54:12.562Z,63.59
2016-11-25T17:54:40.479Z,63.78
2016-11-25T17:55:08.571Z,64.65
2016-11-25T17:55:36.512Z,63.78
2016-11-25T17:56:04.730Z,64.36
2016-11-25T17:56:32.958Z,64.95
2016-11-25T17:57:00.824Z,65.2
2016-11-25T17:57:28.836Z,65.3
2016-11-25T17:57:56.764Z,65.59
2016-11-25T17:58:24.900Z,65.98
2016-11-25T17:58:52.773Z,66.27
2016-11-25T17:59:20.559Z,66.17
2016-11-25T17:59:48.446Z,65.63
2016-11-25T18:00:16.231Z,65.59
2016-11-25T18:00:44.219Z,64.95
2016-11-25T18:01:12.178Z,64.65
2016-11-25T18:01:40.142Z,64.43
2016-11-25T18:02:08.015Z,64.92
2016-11-25T18:02:35.757Z,64.62
2016-11-25T18:03:03.700Z,65.11
2016-11-25T18:03:31.702Z,65.79
2016-11-25T18:03:59.574Z,66.17
2016-11-25T18:04:27.612Z,66.05
2016-11-25T18:04:55.419Z,66.05
2016-11-25T18:05:23.521Z,65.95
2016-11-25T18:05:51.354Z,66.44
2016-11-25T18:06:19.154Z,65.85
2016-11-25T18:06:46.996Z,66.92
2016-11-25T18:07:14.911Z,67.27
2016-11-25T18:07:42.814Z,66.89
2016-11-25T18:08:10.661Z,66.89
2016-11-25T18:08:38.656Z,66.99
2016-11-25T18:09:06.538Z,67.6
2016-11-25T18:09:34.348Z,67.18
2016-11-25T18:10:02.220Z,66.82
2016-11-25T18:10:30.111Z,66.53
2016-11-25T18:10:58.049Z,65.95
2016-11-25T18:11:25.847Z,66.24
2016-11-25T18:11:53.726Z,65.56
2016-11-25T18:12:21.523Z,66.24
2016-11-25T18:12:49.350Z,66.08
2016-11-25T18:13:17.152Z,65.79
2016-11-25T18:13:45.020Z,65.59
2016-11-25T18:14:12.878Z,65.3
2016-11-25T18:14:40.827Z,64.72
2016-11-25T18:15:08.713Z,65.01
2016-11-25T18:15:36.530Z,65.11
2016-11-25T18:16:04.485Z,65.2
2016-11-25T18:16:32.419Z,65.01
2016-11-25T18:17:00.212Z,65.89
2016-11-25T18:17:27.983Z,65.89
2016-11-25T18:17:55.801Z,65.75
2016-11-25T18:18:23.826Z,65.95
2016-11-25T18:18:51.608Z,65.75
2016-11-25T18:19:19.397Z,66.14
2016-11-25T18:19:47.240Z,66.72
2016-11-25T18:20:15.211Z,65.75
2016-11-25T18:20:43.231Z,66.63
2016-11-25T18:21:11.244Z,66.86
2016-11-25T18:21:39.132Z,65.95
2016-11-25T18:22:07.127Z,65.89
2016-11-25T18:22:35.034Z,66.27
2016-11-25T18:23:02.895Z,65.17
2016-11-25T18:23:30.942Z,65.95
2016-11-25T18:23:58.760Z,65.75
2016-11-25T18:24:26.530Z,66.11
2016-11-25T18:24:54.742Z,66.05
2016-11-25T18:25:22.511Z,66.05
2016-11-25T18:25:50.427Z,65.75
2016-11-25T18:26:18.197Z,65.66
2016-11-25T18:26:46.091Z,65.17
2016-11-25T18:27:13.898Z,65.47
2016-11-25T18:27:41.949Z,65.75
2016-11-25T18:28:09.939Z,64.78
2016-11-25T18:28:37.936Z,64.78
2016-11-25T18:29:05.884Z,64.88
2016-11-25T18:29:33.819Z,65.17
2016-11-25T18:30:01.572Z,66.02
2016-11-25T18:30:29.417Z,66.5
2016-11-25T18:30:57.276Z,66.95
2016-11-25T18:31:25.185Z,66.95
2016-11-25T18:31:52.988Z,67.44
2016-11-25T18:32:20.901Z,67.24
2016-11-25T18:32:48.834Z,67.57
2016-11-25T18:33:16.688Z,67.08
2016-11-25T18:33:45.162Z,66.6
2016-11-25T18:34:12.964Z,66.79
2016-11-25T18:34:40.780Z,66.69
2016-11-25T18:35:08.622Z,66.3
2016-11-25T18:35:36.519Z,66.05
2016-11-25T18:36:04.326Z,66.14
2016-11-25T18:36:32.111Z,66.11
2016-11-25T18:36:59.963Z,66.11
2016-11-25T18:37:27.917Z,66.05
2016-11-25T18:37:55.864Z,66.11
2016-11-25T18:38:23.707Z,66.02
2016-11-25T18:38:51.807Z,66.2
2016-11-25T18:39:19.584Z,66.11
2016-11-25T18:39:47.382Z,65.63
2016-11-25T18:40:15.232Z,65.72
2016-11-25T18:40:43.273Z,65.92
2016-11-25T18:41:11.027Z,65.72
2016-11-25T18:41:38.913Z,65.63
2016-11-25T18:42:06.866Z,65.43
2016-11-25T18:42:34.672Z,65.63
2016-11-25T18:43:02.502Z,66.2
2016-11-25T18:43:30.369Z,65.72
2016-11-25T18:43:58.116Z,66.27
2016-11-25T18:44:26.082Z,66.95
2016-11-25T18:44:54.094Z,66.95
2016-11-25T18:45:22.013Z,67.05
2016-11-25T18:45:49.800Z,67.24
2016-11-25T18:46:17.569Z,67.14
2016-11-25T18:46:45.525Z,67.3
2016-11-25T18:47:13.637Z,67.4
2016-11-25T18:47:41.402Z,67.5
2016-11-25T18:48:09.324Z,67.11
2016-11-25T18:48:37.370Z,67.11
2016-11-25T18:49:05.256Z,67.69
2016-11-25T18:49:33.111Z,67.88
2016-11-25T18:50:00.972Z,67.79
2016-11-25T18:50:28.803Z,67.88
2016-11-25T18:50:56.652Z,67.53
2016-11-25T18:51:24.405Z,68.27
2016-11-25T18:51:52.309Z,67.98
2016-11-25T18:52:20.180Z,67.98
2016-11-25T18:52:47.952Z,67.88
2016-11-25T18:53:15.721Z,67.11
2016-11-25T18:53:43.585Z,67.6
2016-11-25T18:54:11.504Z,67.98
2016-11-25T18:54:39.385Z,68.18
2016-11-25T18:55:07.372Z,68.27
2016-11-25T18:55:35.254Z,68.53
2016-11-25T18:56:03.004Z,69.08
2016-11-25T18:56:30.786Z,69.11
2016-11-25T18:56:58.668Z,69.75
2016-11-25T18:57:26.579Z,70.14
2016-11-25T18:57:54.532Z,70.14
2016-11-25T18:58:22.283Z,69.98
2016-11-25T18:58:50.165Z,70.08
2016-11-25T18:59:18.026Z,69.98
2016-11-25T18:59:45.911Z,69.5
2016-11-25T19:00:13.870Z,69.31
2016-11-25T19:00:41.631Z,69.31
2016-11-25T19:01:09.735Z,69.21
2016-11-25T19:01:37.490Z,69.31
2016-11-25T19:02:05.376Z,69.05
2016-11-25T19:02:33.326Z,68.76
2016-11-25T19:03:01.159Z,68.08
2016-11-25T19:03:28.915Z,68.27
2016-11-25T19:03:56.972Z,68.18
2016-11-25T19:04:24.769Z,69.05
2016-11-25T19:04:52.564Z,68.82
2016-11-25T19:05:20.473Z,69.21
2016-11-25T19:05:48.319Z,69.24
2016-11-25T19:06:16.190Z,69.31
2016-11-25T19:06:44.108Z,69.43
2016-11-25T19:07:12.043Z,69.34
2016-11-25T19:07:39.860Z,69.34
2016-11-25T19:08:07.746Z,69.34
2016-11-25T19:08:35.791Z,69.15
2016-11-25T19:09:03.936Z,69.24
2016-11-25T19:09:31.708Z,69.79
2016-11-25T19:09:59.838Z,69.53
2016-11-25T19:10:27.922Z,69.63
2016-11-25T19:10:55.923Z,70.01
2016-11-25T19:11:23.764Z,70.01
2016-11-25T19:11:51.707Z,70.18
2016-11-25T19:12:20.151Z,70.37
2016-11-25T19:12:48.523Z,71.24
2016-11-25T19:13:16.314Z,71.5
2016-11-25T19:13:44.284Z,71.4
2016-11-25T19:14:12.236Z,71.78
2016-11-25T19:14:40.193Z,73.2
2016-11-25T19:15:08.644Z,73.01
2016-11-25T19:15:36.671Z,73.39
2016-11-25T19:16:04.459Z,73.3
2016-11-25T19:16:32.359Z,73.78
2016-11-25T19:17:00.231Z,73.49
2016-11-25T19:17:28.274Z,73.59
2016-11-25T19:17:56.245Z,73.39
2016-11-25T19:18:24.203Z,73.59
2016-11-25T19:18:52.137Z,74.36
2016-11-25T19:19:19.957Z,74.27
2016-11-25T19:19:48.290Z,73.97
2016-11-25T19:20:16.367Z,74.07
2016-11-25T19:20:44.159Z,74.07
2016-11-25T19:21:12.811Z,74.07
2016-11-25T19:21:40.666Z,74.36
2016-11-25T19:22:08.552Z,74.04
2016-11-25T19:22:36.342Z,74.81
2016-11-25T19:23:04.214Z,74.81
2016-11-25T19:23:32.125Z,73.94
2016-11-25T19:24:00.078Z,73.84
2016-11-25T19:24:28.036Z,74.52
2016-11-25T19:24:56.021Z,74.71
2016-11-25T19:25:24.521Z,75
2016-11-25T19:25:52.495Z,75
2016-11-25T19:26:20.333Z,75.16
2016-11-25T19:26:49.006Z,75.48
2016-11-25T19:27:17.035Z,75.68
2016-11-25T19:27:45.014Z,75.39
2016-11-25T19:28:13.175Z,75
2016-11-25T19:28:41.049Z,74.9
2016-11-25T19:29:09.256Z,74.9
2016-11-25T19:29:37.736Z,74.32
2016-11-25T19:30:06.126Z,75
2016-11-25T19:30:34.721Z,74.62
2016-11-25T19:31:03.815Z,73.94
2016-11-25T19:31:31.840Z,74.27
2016-11-25T19:31:59.876Z,74.07
2016-11-25T19:32:27.749Z,74.36
2016-11-25T19:32:55.953Z,73.78
2016-11-25T19:33:23.807Z,73.49
2016-11-25T19:33:52.602Z,73.1
2016-11-25T19:34:21.439Z,73.1
2016-11-25T19:34:49.402Z,72.56
2016-11-25T19:35:17.341Z,72.75
2016-11-25T19:35:45.214Z,73.04
2016-11-25T19:36:13.033Z,72.46
2016-11-25T19:36:40.831Z,72.75
2016-11-25T19:37:08.760Z,72.36
2016-11-25T19:37:36.575Z,72.08
2016-11-25T19:38:04.500Z,71.59
2016-11-25T19:38:32.366Z,72.17
2016-11-25T19:39:00.519Z,71.78
2016-11-25T19:39:28.331Z,71.2
2016-11-25T19:39:56.366Z,71.59
2016-11-25T19:40:24.736Z,71.11
2016-11-25T19:40:52.676Z,71.4
2016-11-25T19:41:21.440Z,71.59
2016-11-25T19:41:49.316Z,71.3
2016-11-25T19:42:17.412Z,71.94
2016-11-25T19:42:45.436Z,72.27
2016-11-25T19:43:13.705Z,71.84
2016-11-25T19:43:41.477Z,72.14
2016-11-25T19:44:09.445Z,72.04
2016-11-25T19:44:37.565Z,71.94
2016-11-25T19:45:05.530Z,73.1
2016-11-25T19:45:33.358Z,72.42
2016-11-25T19:46:01.812Z,72.91
2016-11-25T19:46:29.740Z,73.3
2016-11-25T19:46:58.042Z,73.16
2016-11-25T19:47:26.158Z,73.2
2016-11-25T19:47:53.960Z,73.3
2016-11-25T19:48:22.065Z,73.01
2016-11-25T19:48:50.528Z,73.2
2016-11-25T19:49:18.479Z,73.3
2016-11-25T19:49:46.906Z,73.01
2016-11-25T19:50:14.863Z,73.1
2016-11-25T19:50:42.829Z,73.39
2016-11-25T19:51:10.619Z,72.52
2016-11-25T19:51:38.447Z,72.72
2016-11-25T19:52:06.364Z,73.04
2016-11-25T19:52:34.294Z,72.56
2016-11-25T19:53:02.195Z,72.33
2016-11-25T19:53:30.033Z,72.81
2016-11-25T19:53:57.983Z,73.2
2016-11-25T19:54:25.769Z,73.59
2016-11-25T19:54:53.607Z,73.46
2016-11-25T19:55:21.496Z,73.94
2016-11-25T19:55:49.348Z,74.52
2016-11-25T19:56:17.242Z,74.81
2016-11-25T19:56:45.215Z,74.62
2016-11-25T19:57:13.230Z,74.68
2016-11-25T19:57:41.109Z,75.1
2016-11-25T19:58:09.107Z,75
2016-11-25T19:58:36.961Z,75
2016-11-25T19:59:04.954Z,74.62
2016-11-25T19:59:32.948Z,74.62
2016-11-25T20:00:00.759Z,73.94
2016-11-25T20:00:28.640Z,74.04
2016-11-25T20:00:56.671Z,73.39
2016-11-25T20:01:24.557Z,73.59
2016-11-25T20:01:52.347Z,73.39
2016-11-25T20:02:20.109Z,73.1
2016-11-25T20:02:47.999Z,73.1
2016-11-25T20:03:15.908Z,72.81
2016-11-25T20:03:43.671Z,72.62
2016-11-25T20:04:11.638Z,72.72
2016-11-25T20:04:39.601Z,72.46
2016-11-25T20:05:07.365Z,72.62
2016-11-25T20:05:35.206Z,72.46
2016-11-25T20:06:03.053Z,72.66
2016-11-25T20:06:31.003Z,72.52
2016-11-25T20:06:58.989Z,72.72
2016-11-25T20:07:26.811Z,72.62
2016-11-25T20:07:54.627Z,72.52
2016-11-25T20:08:22.475Z,73.39
2016-11-25T20:08:50.432Z,73.2
2016-11-25T20:09:18.427Z,73.2
2016-11-25T20:09:46.310Z,73.3
2016-11-25T20:10:14.090Z,73.49
2016-11-25T20:10:41.989Z,73.49
2016-11-25T20:11:09.793Z,74.07
2016-11-25T20:11:37.601Z,74.27
2016-11-25T20:12:05.400Z,74.17
2016-11-25T20:12:33.248Z,74.65
2016-11-25T20:13:01.084Z,74.32
2016-11-25T20:13:28.851Z,74.46
2016-11-25T20:13:56.668Z,75.13